createdAt,value
2022-10-11T00:00:39.434Z,72.75
2022-10-11T00:03:07.113Z,72.38
2022-10-11T00:05:35.741Z,73.49
2022-10-11T00:08:05.612Z,73.89
2022-10-11T00:10:35.373Z,74.53
2022-10-11T00:13:03.179Z,75.31
2022-10-11T00:15:31.199Z,76.08
2022-10-11T00:18:02.118Z,76.31
2022-10-11T00:20:34.165Z,75.57
2022-10-11T00:23:01.348Z,78.77
2022-10-11T00:25:34.011Z,77.01
2022-10-11T00:28:03.589Z,76.51
2022-10-11T00:30:31.575Z,79.22
2022-10-11T00:32:58.840Z,79.69
2022-10-11T00:35:26.748Z,77.70
2022-10-11T00:37:56.945Z,78.16
2022-10-11T00:40:26.518Z,78.00
2022-10-11T00:42:53.656Z,78.40
2022-10-11T00:45:26.851Z,75.93
2022-10-11T00:47:55.402Z,80.37
2022-10-11T00:50:28.110Z,76.73
2022-10-11T00:53:01.757Z,77.09
2022-10-11T00:55:33.735Z,76.77
2022-10-11T00:58:01.082Z,80.14
2022-10-11T01:00:28.257Z,79.76
2022-10-11T01:02:55.773Z,79.09
2022-10-11T01:05:29.708Z,76.99
2022-10-11T01:08:02.282Z,81.46
2022-10-11T01:10:29.884Z,80.99
2022-10-11T01:13:40.757Z,79.88
2022-10-11T01:16:35.463Z,81.64
2022-10-11T01:19:33.422Z,80.51
2022-10-11T01:22:33.850Z,80.65
2022-10-11T01:25:31.002Z,81.46
2022-10-11T01:28:23.020Z,79.80
2022-10-11T01:30:51.685Z,78.60
2022-10-11T01:33:22.888Z,81.64
2022-10-11T01:36:27.946Z,79.32
2022-10-11T01:39:36.813Z,80.21
2022-10-11T01:42:09.930Z,79.59
2022-10-11T01:44:39.160Z,79.82
2022-10-11T01:47:08.645Z,79.09
2022-10-11T01:49:35.913Z,80.02
2022-10-11T01:52:06.998Z,79.42
2022-10-11T01:55:10.642Z,78.86
2022-10-11T01:58:04.350Z,79.62
2022-10-11T02:00:51.850Z,79.56
2022-10-11T02:03:24.629Z,79.42
2022-10-11T02:06:04.419Z,78.47
2022-10-11T02:08:53.074Z,79.01
2022-10-11T02:11:44.445Z,79.32
2022-10-11T02:14:27.323Z,80.02
2022-10-11T02:17:12.198Z,79.55
2022-10-11T02:19:46.059Z,80.41
2022-10-11T02:22:27.984Z,79.66
2022-10-11T02:25:02.180Z,79.24
2022-10-11T02:27:33.506Z,78.94
2022-10-11T02:30:04.477Z,79.35
2022-10-11T02:32:33.642Z,79.89
2022-10-11T02:35:02.623Z,80.76
2022-10-11T02:37:54.006Z,80.12
2022-10-11T02:40:35.313Z,80.82
2022-10-11T02:43:28.555Z,80.43
2022-10-11T02:46:03.396Z,80.46
2022-10-11T02:48:32.374Z,80.75
2022-10-11T02:51:02.428Z,81.09
2022-10-11T02:53:30.023Z,81.36
2022-10-11T02:55:57.512Z,81.60
2022-10-11T02:58:25.553Z,81.10
2022-10-11T03:00:52.809Z,81.33
2022-10-11T03:03:20.150Z,81.37
2022-10-11T03:05:47.323Z,81.45
2022-10-11T03:08:16.414Z,81.01
2022-10-11T03:10:44.185Z,81.02
2022-10-11T03:13:15.975Z,81.00
2022-10-11T03:16:01.925Z,81.54
2022-10-11T03:18:35.283Z,81.60
2022-10-11T03:21:02.272Z,81.55
2022-10-11T03:23:29.400Z,81.57
2022-10-11T03:25:56.742Z,81.75
2022-10-11T03:28:26.050Z,82.00
2022-10-11T03:30:53.497Z,82.05
2022-10-11T03:33:20.639Z,80.91
2022-10-11T03:35:51.080Z,81.37
2022-10-11T03:38:22.606Z,81.88
2022-10-11T03:40:51.928Z,82.09
2022-10-11T03:43:19.214Z,81.73
2022-10-11T03:45:46.725Z,82.13
2022-10-11T03:48:13.905Z,82.29
2022-10-11T03:50:43.789Z,81.74
2022-10-11T03:53:13.423Z,81.88
2022-10-11T03:55:41.464Z,82.21
2022-10-11T03:58:09.309Z,81.99
2022-10-11T04:00:37.536Z,82.62
2022-10-11T04:03:04.813Z,82.27
2022-10-11T04:05:32.272Z,82.15
2022-10-11T04:07:59.662Z,81.60
2022-10-11T04:10:26.867Z,81.42
2022-10-11T04:12:56.518Z,82.10
2022-10-11T04:15:23.814Z,82.67
2022-10-11T04:17:50.908Z,82.22
2022-10-11T04:20:18.064Z,82.76
2022-10-11T04:22:45.176Z,83.40
2022-10-11T04:25:12.240Z,83.13
2022-10-11T04:27:39.666Z,82.85
2022-10-11T04:30:08.094Z,84.12
2022-10-11T04:32:37.630Z,84.54
2022-10-11T04:35:05.509Z,85.69
2022-10-11T04:37:35.921Z,85.14
2022-10-11T04:40:04.324Z,85.06
2022-10-11T04:42:31.472Z,84.21
2022-10-11T04:45:01.132Z,84.88
2022-10-11T04:47:28.283Z,84.44
2022-10-11T04:49:57.757Z,85.11
2022-10-11T04:52:26.033Z,85.16
2022-10-11T04:54:53.360Z,85.14
2022-10-11T04:57:21.971Z,85.86
2022-10-11T04:59:50.319Z,85.33
2022-10-11T05:02:17.968Z,85.16
2022-10-11T05:04:45.235Z,84.53
2022-10-11T05:07:12.452Z,85.55
2022-10-11T05:09:39.546Z,86.06
2022-10-11T05:12:06.801Z,85.76
2022-10-11T05:14:34.416Z,84.90
2022-10-11T05:17:01.500Z,85.57
2022-10-11T05:19:28.793Z,85.24
2022-10-11T05:21:56.072Z,85.74
2022-10-11T05:24:23.917Z,85.91
2022-10-11T05:26:51.583Z,84.58
2022-10-11T05:29:18.712Z,85.27
2022-10-11T05:31:46.081Z,84.68
2022-10-11T05:34:13.124Z,84.53
2022-10-11T05:36:40.249Z,83.48
2022-10-11T05:39:07.383Z,84.48
2022-10-11T05:41:34.489Z,83.89
2022-10-11T05:44:01.576Z,83.05
2022-10-11T05:46:28.896Z,82.82
2022-10-11T05:48:58.233Z,82.22
2022-10-11T05:51:25.330Z,81.32
2022-10-11T05:53:52.778Z,79.69
2022-10-11T05:56:26.602Z,79.79
2022-10-11T05:58:57.510Z,77.92
2022-10-11T06:01:28.220Z,76.27
2022-10-11T06:03:57.831Z,74.66
2022-10-11T06:06:24.998Z,74.96
2022-10-11T06:08:52.345Z,74.88
2022-10-11T06:11:29.112Z,77.05
2022-10-11T06:13:58.286Z,77.11
2022-10-11T06:16:25.989Z,75.02
2022-10-11T06:18:55.221Z,71.30
2022-10-11T06:21:23.338Z,68.06
2022-10-11T06:24:01.920Z,65.80
2022-10-11T06:26:30.108Z,64.04
2022-10-11T06:28:57.605Z,62.77
2022-10-11T06:31:25.075Z,62.07
2022-10-11T06:33:52.297Z,60.29
2022-10-11T06:36:19.731Z,59.03
2022-10-11T06:38:46.978Z,58.56
2022-10-11T06:41:21.068Z,56.13
2022-10-11T06:43:49.864Z,54.70
2022-10-11T06:46:19.600Z,56.13
2022-10-11T06:48:48.468Z,54.82
2022-10-11T06:51:19.966Z,52.65
2022-10-11T06:53:58.311Z,54.56
2022-10-11T06:56:31.096Z,52.98
2022-10-11T06:58:59.741Z,53.35
2022-10-11T07:01:27.636Z,51.00
2022-10-11T07:03:57.698Z,51.29
2022-10-11T07:06:28.326Z,51.67
2022-10-11T07:08:55.781Z,50.03
2022-10-11T07:11:27.350Z,48.15
2022-10-11T07:13:58.157Z,48.88
2022-10-11T07:16:26.325Z,49.69
2022-10-11T07:19:00.482Z,50.51
2022-10-11T07:21:30.324Z,47.65
2022-10-11T07:23:57.717Z,47.03
2022-10-11T07:26:27.524Z,45.60
2022-10-11T07:28:54.760Z,47.58
2022-10-11T07:31:25.518Z,46.38
2022-10-11T07:33:52.877Z,45.67
2022-10-11T07:36:23.307Z,43.54
2022-10-11T07:38:50.723Z,46.24
2022-10-11T07:41:18.237Z,48.43
2022-10-11T07:43:47.819Z,45.73
2022-10-11T07:46:16.108Z,43.79
2022-10-11T07:48:43.216Z,46.77
2022-10-11T07:51:15.781Z,44.73
2022-10-11T07:53:55.755Z,45.02
2022-10-11T07:56:28.682Z,46.09
2022-10-11T07:59:01.667Z,45.35
2022-10-11T08:01:31.994Z,44.42
2022-10-11T08:03:59.861Z,44.60
2022-10-11T08:06:33.654Z,43.91
2022-10-11T08:09:01.757Z,46.26
2022-10-11T08:11:36.430Z,45.97
2022-10-11T08:14:08.693Z,45.87
2022-10-11T08:16:38.998Z,45.02
2022-10-11T08:19:07.432Z,44.63
2022-10-11T08:21:34.921Z,42.47
2022-10-11T08:24:06.999Z,45.04
2022-10-11T08:26:37.472Z,46.82
2022-10-11T08:29:05.341Z,45.44
2022-10-11T08:31:34.590Z,44.19
2022-10-11T08:34:01.704Z,40.92
2022-10-11T08:36:28.744Z,41.74
2022-10-11T08:38:55.815Z,42.47
2022-10-11T08:41:49.950Z,40.54
2022-10-11T08:47:33.366Z,37.91
2022-10-11T08:50:01.182Z,39.78
2022-10-11T08:52:46.813Z,39.80
2022-10-11T08:55:15.386Z,38.48
2022-10-11T08:57:53.263Z,40.12
2022-10-11T09:00:21.726Z,41.95
2022-10-11T09:03:09.355Z,44.13
2022-10-11T09:06:01.040Z,46.88
2022-10-11T09:08:44.431Z,47.04
2022-10-11T09:11:39.773Z,45.63
2022-10-11T09:14:43.669Z,42.55
2022-10-11T09:17:46.814Z,42.28
2022-10-11T09:20:52.401Z,40.16
2022-10-11T09:23:43.470Z,39.47
2022-10-11T09:26:31.909Z,39.22
2022-10-11T09:29:18.164Z,38.87
2022-10-11T09:31:55.011Z,40.89
2022-10-11T09:34:26.868Z,41.96
2022-10-11T09:37:38.155Z,43.86
2022-10-11T09:40:08.464Z,45.01
2022-10-11T09:42:38.067Z,42.74
2022-10-11T09:45:21.479Z,45.45
2022-10-11T09:47:54.859Z,45.47
2022-10-11T09:50:30.674Z,42.25
2022-10-11T09:53:04.891Z,40.76
2022-10-11T09:55:45.251Z,38.62
2022-10-11T09:58:35.489Z,39.52
2022-10-11T10:01:10.146Z,35.28
2022-10-11T10:03:42.988Z,36.28
2022-10-11T10:06:33.638Z,34.17
2022-10-11T10:09:30.522Z,37.82
2022-10-11T10:11:58.126Z,36.24
2022-10-11T10:14:30.031Z,35.66
2022-10-11T10:17:08.706Z,34.14
2022-10-11T10:20:05.516Z,34.91
2022-10-11T10:22:35.763Z,35.32
2022-10-11T10:25:08.146Z,32.44
2022-10-11T10:27:35.701Z,31.89
2022-10-11T10:30:15.951Z,30.61
2022-10-11T10:33:05.880Z,33.84
2022-10-11T10:35:49.328Z,33.52
2022-10-11T10:38:41.359Z,32.81
2022-10-11T10:41:13.230Z,36.66
2022-10-11T10:43:43.752Z,37.31
2022-10-11T10:46:39.660Z,38.77
2022-10-11T10:49:53.056Z,39.18
2022-10-11T10:52:49.463Z,38.93
2022-10-11T10:55:42.271Z,38.40
2022-10-11T10:58:27.245Z,37.83
2022-10-11T11:01:48.875Z,38.95
2022-10-11T11:04:33.557Z,40.61
2022-10-11T11:07:36.666Z,42.06
2022-10-11T11:10:48.426Z,38.51
2022-10-11T11:13:22.701Z,38.98
2022-10-11T11:15:50.416Z,38.66
2022-10-11T11:18:30.352Z,38.25
2022-10-11T11:21:26.812Z,38.05
2022-10-11T11:24:29.755Z,38.67
2022-10-11T11:27:02.878Z,39.10
2022-10-11T11:29:53.148Z,36.75
2022-10-11T11:33:02.442Z,37.53
2022-10-11T11:35:44.050Z,36.94
2022-10-11T11:38:37.516Z,32.44
2022-10-11T11:41:11.591Z,34.22
2022-10-11T11:43:46.118Z,33.50
2022-10-11T11:46:27.709Z,32.52
2022-10-11T11:49:02.895Z,32.06
2022-10-11T11:51:41.553Z,30.96
2022-10-11T11:54:37.233Z,30.22
2022-10-11T11:57:41.572Z,29.47
2022-10-11T12:00:23.498Z,30.41
2022-10-11T12:03:01.631Z,30.11
2022-10-11T12:05:37.609Z,29.35
2022-10-11T12:08:25.448Z,30.06
2022-10-11T12:11:02.453Z,28.77
2022-10-11T12:13:37.645Z,29.77
2022-10-11T12:16:04.668Z,29.84
2022-10-11T12:18:38.146Z,30.07
2022-10-11T12:21:44.386Z,29.50
2022-10-11T12:24:15.389Z,29.44
2022-10-11T12:26:45.506Z,28.94
2022-10-11T12:29:18.964Z,28.44
2022-10-11T12:32:00.225Z,29.13
2022-10-11T12:34:44.964Z,29.12
2022-10-11T12:37:18.128Z,29.14
2022-10-11T12:40:00.459Z,29.18
2022-10-11T12:42:36.574Z,28.37
2022-10-11T12:45:13.212Z,29.44
2022-10-11T12:48:00.979Z,31.13
2022-10-11T12:51:26.321Z,30.89
2022-10-11T12:55:14.114Z,30.25
2022-10-11T12:58:25.011Z,29.10
2022-10-11T13:00:52.043Z,31.77
2022-10-11T13:03:50.905Z,34.07
2022-10-11T13:06:38.811Z,33.11
2022-10-11T13:09:48.774Z,33.48
2022-10-11T13:12:25.333Z,32.11
2022-10-11T13:15:08.516Z,32.21
2022-10-11T13:17:39.044Z,30.98
2022-10-11T13:20:30.539Z,31.18
2022-10-11T13:22:58.605Z,33.05
2022-10-11T13:25:37.988Z,33.60
2022-10-11T13:28:09.785Z,35.17
2022-10-11T13:30:42.394Z,35.26
2022-10-11T13:33:21.411Z,36.76
2022-10-11T13:35:49.461Z,36.49
2022-10-11T13:38:43.160Z,36.86
2022-10-11T13:41:10.773Z,37.42
2022-10-11T13:43:38.721Z,35.81
2022-10-11T13:46:07.175Z,36.43
2022-10-11T13:48:41.065Z,35.77
2022-10-11T13:51:38.364Z,36.67
2022-10-11T13:54:13.534Z,37.11
2022-10-11T13:56:49.808Z,36.68
2022-10-11T13:59:23.986Z,38.17
2022-10-11T14:02:04.487Z,38.03
2022-10-11T14:04:40.909Z,38.69
2022-10-11T14:07:35.751Z,36.38
2022-10-11T14:10:05.634Z,36.09
2022-10-11T14:12:39.733Z,34.72
2022-10-11T14:15:23.737Z,34.35
2022-10-11T14:17:51.548Z,33.94
2022-10-11T14:20:33.738Z,33.59
2022-10-11T14:23:02.868Z,35.15
2022-10-11T14:25:33.353Z,36.68
2022-10-11T14:28:00.723Z,37.16
2022-10-11T14:30:28.589Z,37.62
2022-10-11T14:32:59.641Z,38.88
2022-10-11T14:35:34.482Z,39.49
2022-10-11T14:38:01.608Z,39.47
2022-10-11T14:40:31.871Z,40.34
2022-10-11T14:42:59.035Z,39.73
2022-10-11T14:45:26.286Z,38.98
2022-10-11T14:47:53.581Z,38.33
2022-10-11T14:50:51.860Z,38.33
2022-10-11T14:53:19.238Z,38.23
2022-10-11T14:55:48.441Z,37.98
2022-10-11T14:58:17.386Z,38.14
2022-10-11T15:00:45.691Z,38.34
2022-10-11T15:03:14.878Z,38.11
2022-10-11T15:05:44.218Z,38.38
2022-10-11T15:08:14.892Z,38.94
2022-10-11T15:10:42.220Z,39.14
2022-10-11T15:13:11.812Z,40.55
2022-10-11T15:15:41.426Z,40.78
2022-10-11T15:18:13.455Z,41.37
2022-10-11T15:20:46.056Z,42.32
2022-10-11T15:23:13.925Z,41.91
2022-10-11T15:25:42.638Z,42.97
2022-10-11T15:28:30.117Z,43.53
2022-10-11T15:30:57.758Z,44.38
2022-10-11T15:33:28.320Z,44.72
2022-10-11T15:35:55.562Z,45.27
2022-10-11T15:38:25.896Z,44.69
2022-10-11T15:40:54.077Z,46.62
2022-10-11T15:43:24.776Z,46.75
2022-10-11T15:45:52.681Z,47.36
2022-10-11T15:48:22.756Z,47.58
2022-10-11T15:50:50.978Z,47.70
2022-10-11T15:53:23.336Z,49.30
2022-10-11T15:55:55.738Z,49.14
2022-10-11T15:58:27.860Z,50.71
2022-10-11T16:00:57.092Z,53.13
2022-10-11T16:03:29.614Z,51.28
2022-10-11T16:06:04.933Z,52.78
2022-10-11T16:08:36.110Z,53.19
2022-10-11T16:11:05.114Z,51.99
2022-10-11T16:13:33.027Z,51.90
2022-10-11T16:16:11.288Z,53.83
2022-10-11T16:18:40.204Z,53.11
2022-10-11T16:21:10.647Z,54.49
2022-10-11T16:23:38.599Z,54.07
2022-10-11T16:26:10.174Z,54.48
2022-10-11T16:28:40.177Z,55.07
2022-10-11T16:31:18.326Z,55.93
2022-10-11T16:33:46.238Z,55.82
2022-10-11T16:36:36.624Z,56.99
2022-10-11T16:39:15.758Z,57.42
2022-10-11T16:41:46.278Z,57.12
2022-10-11T16:44:25.259Z,58.28
2022-10-11T16:46:52.670Z,57.60
2022-10-11T16:49:24.222Z,59.20
2022-10-11T16:51:59.006Z,58.30
2022-10-11T16:54:30.599Z,58.18
2022-10-11T16:56:59.598Z,59.36
2022-10-11T16:59:27.170Z,59.86
2022-10-11T17:01:55.160Z,59.46
2022-10-11T17:04:22.416Z,60.39
2022-10-11T17:06:49.859Z,60.48
2022-10-11T17:09:19.454Z,61.49
2022-10-11T17:11:46.588Z,62.41
2022-10-11T17:14:14.239Z,61.52
2022-10-11T17:16:41.450Z,60.71
2022-10-11T17:19:15.064Z,61.46
2022-10-11T17:21:44.730Z,61.40
2022-10-11T17:24:11.870Z,62.29
2022-10-11T17:26:39.293Z,61.86
2022-10-11T17:29:06.411Z,62.33
2022-10-11T17:31:33.538Z,61.44
2022-10-11T17:34:01.430Z,62.76
2022-10-11T17:36:36.265Z,63.62
2022-10-11T17:39:08.798Z,63.45
2022-10-11T17:41:36.663Z,63.78
2022-10-11T17:44:06.638Z,64.28
2022-10-11T17:46:34.247Z,64.60
2022-10-11T17:49:07.650Z,64.51
2022-10-11T17:51:36.952Z,64.20
2022-10-11T17:54:06.165Z,64.26
2022-10-11T17:56:37.657Z,64.38
2022-10-11T17:59:05.692Z,64.84
2022-10-11T18:01:32.884Z,65.32
2022-10-11T18:04:04.664Z,65.06
2022-10-11T18:06:38.515Z,65.00
2022-10-11T18:09:05.878Z,65.52
2022-10-11T18:11:33.574Z,65.65
2022-10-11T18:14:00.999Z,65.52
2022-10-11T18:16:30.536Z,65.91
2022-10-11T18:18:58.988Z,66.23
2022-10-11T18:21:34.352Z,66.34
2022-10-11T18:24:11.003Z,66.84
2022-10-11T18:26:38.585Z,66.97
2022-10-11T18:29:11.005Z,66.79
2022-10-11T18:31:41.295Z,67.49
2022-10-11T18:34:10.942Z,67.03
2022-10-11T18:36:39.088Z,66.74
2022-10-11T18:39:09.273Z,67.56
2022-10-11T18:41:39.414Z,68.41
2022-10-11T18:44:09.156Z,68.33
2022-10-11T18:46:38.672Z,68.36
2022-10-11T18:49:08.718Z,68.98
2022-10-11T18:51:39.444Z,69.57
2022-10-11T18:54:09.107Z,69.43
2022-10-11T18:56:37.188Z,70.59
2022-10-11T18:59:05.436Z,70.06
2022-10-11T19:01:39.634Z,70.56
2022-10-11T19:04:09.434Z,69.68
2022-10-11T19:06:43.406Z,70.23
2022-10-11T19:09:17.783Z,70.67
2022-10-11T19:11:49.524Z,71.02
2022-10-11T19:14:25.742Z,71.96
2022-10-11T19:16:53.926Z,71.12
2022-10-11T19:19:26.175Z,71.34
2022-10-11T19:21:54.033Z,72.14
2022-10-11T19:24:24.320Z,70.72
2022-10-11T19:26:53.168Z,71.23
2022-10-11T19:29:24.179Z,71.59
2022-10-11T19:31:54.888Z,71.71
2022-10-11T19:34:28.710Z,71.63
2022-10-11T19:36:56.890Z,71.52
2022-10-11T19:39:25.609Z,73.02
2022-10-11T19:41:52.994Z,72.79
2022-10-11T19:44:20.483Z,71.65
2022-10-11T19:46:52.438Z,72.07
2022-10-11T19:49:25.045Z,71.89
2022-10-11T19:51:53.987Z,72.37
2022-10-11T19:54:21.179Z,72.04
2022-10-11T19:56:48.824Z,72.70
2022-10-11T19:59:16.814Z,72.19
2022-10-11T20:01:49.410Z,72.95
2022-10-11T20:04:47.135Z,72.71
2022-10-11T20:07:06.871Z,72.21
2022-10-11T20:09:34.055Z,72.49
2022-10-11T20:12:03.548Z,72.01
2022-10-11T20:14:30.671Z,72.22
2022-10-11T20:16:57.897Z,72.52
2022-10-11T20:19:31.120Z,72.88
2022-10-11T20:22:00.193Z,72.00
2022-10-11T20:24:32.450Z,73.07
2022-10-11T20:27:04.688Z,72.79
2022-10-11T20:29:31.905Z,73.58
2022-10-11T20:31:59.120Z,72.84
2022-10-11T20:34:27.696Z,73.09
2022-10-11T20:36:54.933Z,72.51
2022-10-11T20:39:22.109Z,73.42
2022-10-11T20:41:49.195Z,73.71
2022-10-11T20:44:18.698Z,72.78
2022-10-11T20:46:48.365Z,75.66
2022-10-11T20:49:15.739Z,73.41
2022-10-11T20:51:42.923Z,75.57
2022-10-11T20:54:11.301Z,74.71
2022-10-11T20:56:39.270Z,74.25
2022-10-11T20:59:07.010Z,74.18
2022-10-11T21:04:23.390Z,74.21
2022-10-11T21:06:50.531Z,73.48
2022-10-11T21:09:17.979Z,73.95
2022-10-11T21:11:46.016Z,74.19
2022-10-11T21:14:13.253Z,73.60
2022-10-11T21:16:40.431Z,73.16
2022-10-11T21:19:07.659Z,73.61
2022-10-11T21:21:35.051Z,73.89
2022-10-11T21:24:05.593Z,74.07
2022-10-11T21:26:32.963Z,73.52
2022-10-11T21:29:00.191Z,73.93
2022-10-11T21:31:34.250Z,73.95
2022-10-11T21:34:05.144Z,74.51
2022-10-11T21:36:32.311Z,74.69
2022-10-11T21:38:59.484Z,74.92
2022-10-11T21:41:30.149Z,74.92
2022-10-11T21:43:58.165Z,74.96
2022-10-11T21:46:54.239Z,74.59
2022-10-11T21:49:17.648Z,76.73
2022-10-11T21:51:45.521Z,76.07
2022-10-11T21:54:12.726Z,76.54
2022-10-11T21:56:39.966Z,76.96
2022-10-11T21:59:11.089Z,76.50
2022-10-11T22:01:40.437Z,75.58
2022-10-11T22:04:08.081Z,75.85
2022-10-11T22:06:36.180Z,75.57
2022-10-11T22:09:04.558Z,75.55
2022-10-11T22:11:32.226Z,76.53
2022-10-11T22:13:59.406Z,76.02
2022-10-11T22:16:28.949Z,75.12
2022-10-11T22:18:56.176Z,74.37
2022-10-11T22:21:24.032Z,73.84
2022-10-11T22:23:53.657Z,73.89
2022-10-11T22:26:25.748Z,73.52
2022-10-11T22:28:53.560Z,73.69
2022-10-11T22:31:21.516Z,75.38
2022-10-11T22:33:52.754Z,74.35
2022-10-11T22:36:20.005Z,73.23
2022-10-11T22:38:47.562Z,73.83
2022-10-11T22:41:14.684Z,74.53
2022-10-11T22:43:41.879Z,76.02
2022-10-11T22:46:09.862Z,74.92
2022-10-11T22:48:37.424Z,75.58
2022-10-11T22:51:06.919Z,76.67
2022-10-11T22:53:34.634Z,76.52
2022-10-11T22:56:04.257Z,76.81
2022-10-11T22:58:31.508Z,77.78
2022-10-11T23:01:05.621Z,76.93
2022-10-11T23:03:32.857Z,76.44
2022-10-11T23:06:00.135Z,75.67
2022-10-11T23:08:27.330Z,75.74
2022-10-11T23:10:54.469Z,76.66
2022-10-11T23:13:21.706Z,76.60
2022-10-11T23:15:48.813Z,76.12
2022-10-11T23:18:16.970Z,76.24
2022-10-11T23:20:44.740Z,75.97
2022-10-11T23:23:11.878Z,75.80
2022-10-11T23:25:39.689Z,75.23
2022-10-11T23:28:06.798Z,75.70
2022-10-11T23:30:35.303Z,75.96
2022-10-11T23:33:03.494Z,75.67
2022-10-11T23:35:30.674Z,75.67
2022-10-11T23:37:57.721Z,74.83
2022-10-11T23:40:24.876Z,74.81
2022-10-11T23:42:51.960Z,75.34
2022-10-11T23:45:19.089Z,73.79
2022-10-11T23:47:46.147Z,75.37
2022-10-11T23:50:13.266Z,74.58
2022-10-11T23:52:42.749Z,74.20
2022-10-11T23:55:09.976Z,73.87
2022-10-11T23:57:37.535Z,74.65
